Time;durP1;ratioP1;P1;durP2;ratioP2;P2;SDS_P1;SDS_P2;PMS_P1;PMS_P2;Temp;Humidity;BMP_temperature;BMP_pressure;BME280_temperature;BME280_humidity;BME280_pressure;Samples;Min_cycle;Max_cycle;Signal;HPM_P1;HPM_P2
2022/08/04 00:00:08;;;;;;;13.73;6.60;;;22.70;99.90;;;;;;5105970;28;20206;-76
2022/08/04 00:03:01;;;;;;;13.52;7.18;;;22.60;99.90;;;;;;5101091;28;20276;-75
2022/08/04 00:05:37;;;;;;;11.80;6.10;;;22.60;99.90;;;;;;5100455;28;20311;-75
2022/08/04 00:08:24;;;;;;;12.70;7.32;;;22.60;99.90;;;;;;5104808;28;20206;-75
2022/08/04 00:10:58;;;;;;;12.18;8.05;;;22.60;99.90;;;;;;5103067;28;20261;-76
2022/08/04 00:13:30;;;;;;;13.55;7.90;;;22.50;99.90;;;;;;5098667;28;20239;-75
2022/08/04 00:16:01;;;;;;;13.60;7.60;;;22.50;99.90;;;;;;5106059;28;20248;-75
2022/08/04 00:18:58;;;;;;;15.20;7.57;;;22.50;99.90;;;;;;5101530;28;20269;-75
2022/08/04 00:21:27;;;;;;;10.05;6.60;;;22.40;99.90;;;;;;5101127;28;20234;-77
2022/08/04 00:23:55;;;;;;;14.38;7.47;;;22.40;99.90;;;;;;5104592;28;20773;-74
2022/08/04 00:26:39;;;;;;;15.48;8.00;;;22.40;99.90;;;;;;5102335;28;20208;-75
2022/08/04 00:29:06;;;;;;;17.90;8.05;;;22.30;99.90;;;;;;5105276;28;20207;-75
2022/08/04 00:31:33;;;;;;;16.10;7.57;;;22.30;99.90;;;;;;5100371;28;20719;-76
2022/08/04 00:34:21;;;;;;;12.45;7.35;;;22.20;99.90;;;;;;5098875;28;20258;-75
2022/08/04 00:36:48;;;;;;;17.40;8.75;;;22.30;99.90;;;;;;5101796;28;20192;-75
2022/08/04 00:39:16;;;;;;;13.20;6.88;;;22.10;99.90;;;;;;5102438;28;20250;-76
2022/08/04 00:41:52;;;;;;;10.32;6.75;;;22.10;99.90;;;;;;5104008;28;20239;-75
2022/08/04 00:44:34;;;;;;;10.45;6.35;;;22.10;99.90;;;;;;5105097;28;20598;-76
2022/08/04 00:47:43;;;;;;;12.77;6.10;;;22.00;99.90;;;;;;5106835;28;21021;-76
2022/08/04 00:50:23;;;;;;;13.50;6.38;;;22.00;99.90;;;;;;5099540;28;20212;-74
2022/08/04 00:53:02;;;;;;;9.50;5.55;;;21.90;99.90;;;;;;5100700;28;20199;-75
2022/08/04 00:55:57;;;;;;;9.57;5.00;;;21.90;99.90;;;;;;5102422;28;20234;-75
2022/08/04 00:58:28;;;;;;;9.10;5.15;;;21.80;99.90;;;;;;5101345;28;20567;-75
2022/08/04 01:01:02;;;;;;;9.55;4.90;;;21.70;99.90;;;;;;5102996;28;20212;-74
2022/08/04 01:03:58;;;;;;;8.55;4.75;;;21.70;99.90;;;;;;5098412;28;20231;-75
2022/08/04 01:06:56;;;;;;;8.60;5.68;;;21.60;99.90;;;;;;5099683;28;20682;-75
2022/08/04 01:09:47;;;;;;;11.50;5.18;;;21.60;99.90;;;;;;5097108;28;20262;-75
2022/08/04 01:12:30;;;;;;;11.60;5.40;;;21.50;99.90;;;;;;5101885;28;20199;-75
2022/08/04 01:15:02;;;;;;;12.25;4.72;;;21.50;99.90;;;;;;5102793;28;20261;-75
2022/08/04 01:17:34;;;;;;;9.82;5.38;;;21.40;99.90;;;;;;5102784;28;20218;-76
2022/08/04 01:20:10;;;;;;;8.75;4.75;;;21.40;99.90;;;;;;5098246;28;20216;-75
2022/08/04 01:22:56;;;;;;;7.20;4.82;;;21.40;99.90;;;;;;5097310;28;20219;-75
2022/08/04 01:26:01;;;;;;;7.97;5.25;;;21.30;99.90;;;;;;5100948;28;20638;-75
2022/08/04 01:29:11;;;;;;;5.70;4.75;;;21.30;99.90;;;;;;5103166;28;20316;-75
2022/08/04 01:32:23;;;;;;;5.90;4.55;;;21.20;99.90;;;;;;5095079;28;20333;-75
2022/08/04 01:35:02;;;;;;;7.70;4.90;;;21.20;99.90;;;;;;5061403;28;20685;-76
2022/08/04 01:37:40;;;;;;;10.82;4.75;;;21.10;99.90;;;;;;5099547;28;20252;-76
2022/08/04 01:40:08;;;;;;;10.02;5.45;;;21.10;99.90;;;;;;5094991;28;20981;-76
2022/08/04 01:42:37;;;;;;;10.20;5.45;;;21.10;99.90;;;;;;5103651;28;20207;-75
2022/08/04 01:45:07;;;;;;;9.57;5.45;;;21.00;99.90;;;;;;5096435;28;20843;-75
2022/08/04 01:47:35;;;;;;;7.43;5.25;;;21.10;99.90;;;;;;5103124;28;20249;-74
2022/08/04 01:50:08;;;;;;;10.73;6.15;;;21.10;99.90;;;;;;5097750;27;20263;-75
2022/08/04 01:52:37;;;;;;;8.88;5.60;;;21.10;99.90;;;;;;5099126;28;20245;-75
2022/08/04 01:55:10;;;;;;;14.38;5.85;;;21.00;99.90;;;;;;5099749;28;20214;-75
2022/08/04 01:57:48;;;;;;;9.93;5.82;;;21.00;99.90;;;;;;5099776;28;20235;-75
2022/08/04 02:00:21;;;;;;;11.38;5.97;;;21.00;99.90;;;;;;5102362;28;20210;-75
2022/08/04 02:02:51;;;;;;;13.35;5.50;;;20.90;99.90;;;;;;5099518;28;20218;-76
2022/08/04 02:05:21;;;;;;;10.98;5.65;;;20.80;99.90;;;;;;5095683;28;20259;-75
2022/08/04 02:07:59;;;;;;;8.15;5.72;;;20.80;99.90;;;;;;5104514;28;20195;-74
2022/08/04 02:10:45;;;;;;;7.82;5.47;;;20.80;99.90;;;;;;5099507;28;20646;-76
2022/08/04 02:13:34;;;;;;;11.98;6.20;;;20.70;99.90;;;;;;5098985;28;20621;-76
2022/08/04 02:16:02;;;;;;;8.77;5.25;;;20.70;99.90;;;;;;5101860;28;20207;-76
2022/08/04 02:19:03;;;;;;;9.38;5.53;;;20.60;99.90;;;;;;5097852;28;20247;-75
2022/08/04 02:21:31;;;;;;;8.13;5.88;;;20.60;99.90;;;;;;5099713;28;20284;-75
2022/08/04 02:24:13;;;;;;;12.52;5.65;;;20.50;99.90;;;;;;5098308;28;20228;-76
2022/08/04 02:26:42;;;;;;;9.50;5.60;;;20.60;99.90;;;;;;5098199;28;20744;-76
2022/08/04 02:29:19;;;;;;;13.10;6.75;;;20.50;99.90;;;;;;5102047;28;20215;-74
2022/08/04 02:31:56;;;;;;;9.73;6.88;;;20.50;99.90;;;;;;5097512;28;20236;-77
2022/08/04 02:34:34;;;;;;;11.93;7.97;;;20.40;99.90;;;;;;5098651;28;20917;-75
2022/08/04 02:37:03;;;;;;;12.52;7.47;;;20.50;99.90;;;;;;5096197;28;20211;-75
2022/08/04 02:39:34;;;;;;;13.63;7.93;;;20.40;99.90;;;;;;5099678;28;20279;-75
2022/08/04 02:42:15;;;;;;;14.07;7.80;;;20.40;99.90;;;;;;5099384;28;21008;-76
2022/08/04 02:44:47;;;;;;;14.75;7.22;;;20.40;99.90;;;;;;5099479;28;20234;-75
2022/08/04 02:47:18;;;;;;;12.50;7.15;;;20.30;99.90;;;;;;5099225;28;20257;-75
2022/08/04 02:49:46;;;;;;;10.90;7.07;;;20.30;99.90;;;;;;5101634;28;20250;-75
2022/08/04 02:52:15;;;;;;;16.55;7.65;;;20.30;99.90;;;;;;5098325;28;20207;-76
2022/08/04 02:54:44;;;;;;;10.15;7.28;;;20.30;99.90;;;;;;5095139;28;20279;-75
2022/08/04 02:57:12;;;;;;;12.82;6.57;;;20.30;99.90;;;;;;5102849;28;20275;-76
2022/08/04 03:00:06;;;;;;;12.10;7.20;;;20.30;99.90;;;;;;5105384;28;20213;-76
2022/08/04 03:02:54;;;;;;;11.40;7.32;;;20.30;99.90;;;;;;5099954;28;20227;-75
2022/08/04 03:05:30;;;;;;;8.73;6.45;;;20.30;99.90;;;;;;5095060;28;20617;-76
2022/08/04 03:08:37;;;;;;;7.30;5.85;;;20.20;99.90;;;;;;5098864;28;20204;-76
2022/08/04 03:11:22;;;;;;;9.07;5.93;;;20.20;99.90;;;;;;5104412;28;20199;-76
2022/08/04 03:14:04;;;;;;;10.02;6.40;;;20.10;99.90;;;;;;5096869;28;20203;-74
2022/08/04 03:17:02;;;;;;;11.73;6.53;;;20.20;99.90;;;;;;5103372;28;20199;-75
2022/08/04 03:19:44;;;;;;;8.20;6.45;;;20.10;99.90;;;;;;5102143;28;20381;-75
2022/08/04 03:22:26;;;;;;;11.70;6.68;;;20.00;99.90;;;;;;5103734;28;20212;-76
2022/08/04 03:25:08;;;;;;;10.60;6.18;;;20.00;99.90;;;;;;5101102;28;20644;-76
2022/08/04 03:27:37;;;;;;;8.93;6.20;;;20.00;99.90;;;;;;5099751;28;20237;-76
2022/08/04 03:30:04;;;;;;;10.73;5.35;;;20.00;99.90;;;;;;5109152;28;20280;-78
2022/08/04 03:32:54;;;;;;;10.88;6.13;;;19.90;99.90;;;;;;5102286;28;20730;-76
2022/08/04 03:35:58;;;;;;;9.30;5.90;;;19.90;99.90;;;;;;5097280;28;20261;-76
2022/08/04 03:39:03;;;;;;;9.43;5.82;;;19.90;99.90;;;;;;5107926;28;20580;-75
2022/08/04 03:42:16;;;;;;;9.30;5.32;;;19.90;99.90;;;;;;5105842;28;20234;-75
2022/08/04 03:45:18;;;;;;;9.68;5.68;;;19.90;99.90;;;;;;5026380;28;20312;-76
2022/08/04 03:47:52;;;;;;;9.18;5.15;;;19.90;99.90;;;;;;5042815;28;20213;-76
2022/08/04 03:50:45;;;;;;;9.80;5.82;;;19.80;99.90;;;;;;5091940;28;20235;-77
2022/08/04 03:53:29;;;;;;;12.98;5.82;;;19.80;99.90;;;;;;5082968;28;20267;-75
2022/08/04 03:56:22;;;;;;;7.70;5.13;;;19.80;99.90;;;;;;5107753;28;20203;-75
2022/08/04 03:59:22;;;;;;;8.00;6.07;;;19.80;99.90;;;;;;5104187;28;20577;-75
2022/08/04 04:02:09;;;;;;;9.60;5.38;;;19.70;99.90;;;;;;5105269;28;20636;-75
2022/08/04 04:05:43;;;;;;;13.13;5.97;;;19.70;99.90;;;;;;5091062;28;20296;-77
2022/08/04 04:09:01;;;;;;;15.95;7.15;;;19.70;99.90;;;;;;5062681;28;20205;-76
2022/08/04 04:11:43;;;;;;;11.23;7.30;;;19.70;99.90;;;;;;5060969;28;20204;-75
2022/08/04 04:14:42;;;;;;;11.40;6.40;;;19.70;99.90;;;;;;5105492;28;20290;-76
2022/08/04 04:17:27;;;;;;;12.82;8.02;;;19.70;99.90;;;;;;5100466;28;20237;-75
2022/08/04 04:20:03;;;;;;;11.02;6.35;;;19.60;99.90;;;;;;5103220;28;20229;-75
2022/08/04 04:22:33;;;;;;;9.63;6.18;;;19.70;99.90;;;;;;5103109;28;20191;-76
2022/08/04 04:25:33;;;;;;;15.65;7.18;;;19.70;99.90;;;;;;5106916;28;20234;-75
2022/08/04 04:28:16;;;;;;;11.98;6.43;;;19.60;99.90;;;;;;5095341;28;20204;-76
2022/08/04 04:31:32;;;;;;;14.57;6.65;;;19.60;99.90;;;;;;5108221;28;20191;-75
2022/08/04 04:34:07;;;;;;;12.18;7.32;;;19.60;99.90;;;;;;5097167;28;20219;-75
2022/08/04 04:36:43;;;;;;;9.90;6.32;;;19.70;99.90;;;;;;5104547;28;20256;-75
2022/08/04 04:39:30;;;;;;;9.85;6.45;;;19.70;99.90;;;;;;5101125;28;20195;-75
2022/08/04 04:42:26;;;;;;;12.10;6.50;;;19.80;99.90;;;;;;5103218;28;20211;-75
2022/08/04 04:45:24;;;;;;;9.90;5.93;;;19.80;99.90;;;;;;5103294;28;20227;-76
2022/08/04 04:48:08;;;;;;;9.35;6.25;;;19.90;99.90;;;;;;5100286;28;20267;-75
2022/08/04 04:50:54;;;;;;;11.30;5.68;;;19.90;99.90;;;;;;5102594;28;20213;-74
2022/08/04 04:53:40;;;;;;;11.48;5.93;;;20.00;99.90;;;;;;5099528;28;20211;-75
2022/08/04 04:56:31;;;;;;;11.68;6.43;;;20.00;99.90;;;;;;5102793;28;20651;-76
2022/08/04 04:59:00;;;;;;;7.78;4.90;;;20.10;99.90;;;;;;5106741;28;20248;-77
2022/08/04 05:01:59;;;;;;;11.13;6.07;;;20.10;99.90;;;;;;5102497;28;20615;-75
2022/08/04 05:04:51;;;;;;;7.57;5.60;;;20.30;99.90;;;;;;5087596;28;20235;-76
2022/08/04 05:07:49;;;;;;;9.65;5.47;;;20.40;99.90;;;;;;5098861;28;20203;-76
2022/08/04 05:10:26;;;;;;;8.80;5.45;;;20.50;99.90;;;;;;5101123;28;20207;-77
2022/08/04 05:13:15;;;;;;;8.38;5.60;;;20.60;99.90;;;;;;5101623;28;20655;-76
2022/08/04 05:16:22;;;;;;;7.63;5.07;;;20.80;99.90;;;;;;5099655;28;20990;-75
2022/08/04 05:19:02;;;;;;;12.40;5.57;;;21.00;99.90;;;;;;5097719;28;20259;-74
2022/08/04 05:21:46;;;;;;;10.25;5.68;;;21.20;99.90;;;;;;5100802;28;20348;-76
2022/08/04 05:24:18;;;;;;;8.18;5.70;;;21.40;99.90;;;;;;5099548;28;20222;-76
2022/08/04 05:26:51;;;;;;;10.80;5.47;;;21.50;99.90;;;;;;5100806;28;20280;-75
2022/08/04 05:29:24;;;;;;;6.78;5.05;;;21.70;99.90;;;;;;5099673;28;20195;-75
2022/08/04 05:32:00;;;;;;;8.15;4.97;;;21.80;99.90;;;;;;5098834;28;20198;-77
2022/08/04 05:34:32;;;;;;;9.15;5.60;;;22.00;99.90;;;;;;5099802;28;20275;-76
2022/08/04 05:37:04;;;;;;;7.47;4.95;;;22.20;99.90;;;;;;5102345;28;20568;-76
2022/08/04 05:39:37;;;;;;;7.90;4.90;;;22.40;99.90;;;;;;5095649;28;20259;-76
2022/08/04 05:42:06;;;;;;;9.57;5.47;;;22.50;99.90;;;;;;5098338;28;20679;-75
2022/08/04 05:44:34;;;;;;;9.73;6.43;;;22.60;99.90;;;;;;5097441;28;20219;-74
2022/08/04 05:47:03;;;;;;;9.10;5.35;;;22.70;99.90;;;;;;5105310;28;20686;-77
2022/08/04 05:49:31;;;;;;;7.53;5.28;;;22.80;99.90;;;;;;5105293;28;20199;-78
2022/08/04 05:52:02;;;;;;;14.65;5.53;;;23.00;99.90;;;;;;5097606;28;20671;-77
2022/08/04 05:54:31;;;;;;;17.80;5.88;;;23.10;99.90;;;;;;5095130;28;20208;-75
2022/08/04 05:56:59;;;;;;;11.77;5.28;;;23.30;99.90;;;;;;5099518;28;20195;-76
2022/08/04 05:59:27;;;;;;;8.30;5.50;;;23.50;99.90;;;;;;5092998;28;20244;-76
2022/08/04 06:01:56;;;;;;;6.13;4.97;;;24.00;99.90;;;;;;5099551;28;20195;-76
2022/08/04 06:04:29;;;;;;;9.02;4.65;;;24.80;99.90;;;;;;5097595;28;20222;-75
2022/08/04 06:06:56;;;;;;;8.63;4.93;;;25.70;99.90;;;;;;5097570;28;20253;-77
2022/08/04 06:09:23;;;;;;;8.65;5.10;;;26.50;99.90;;;;;;5097600;28;20204;-76
2022/08/04 06:11:52;;;;;;;7.43;4.57;;;27.00;99.90;;;;;;5096338;28;20268;-76
2022/08/04 06:14:34;;;;;;;7.20;4.60;;;27.60;99.90;;;;;;5095198;28;20235;-76
2022/08/04 06:17:04;;;;;;;7.65;4.68;;;28.00;99.90;;;;;;5097896;28;20288;-76
2022/08/04 06:19:53;;;;;;;7.38;4.05;;;28.40;99.90;;;;;;5101675;28;20198;-76
2022/08/04 06:22:41;;;;;;;9.05;4.15;;;28.70;99.90;;;;;;5099182;28;20305;-78
2022/08/04 06:25:12;;;;;;;9.20;4.15;;;28.90;99.90;;;;;;5094837;28;20318;-76
2022/08/04 06:27:40;;;;;;;8.43;4.60;;;29.30;99.90;;;;;;5098936;28;20230;-77
2022/08/04 06:30:13;;;;;;;6.88;4.45;;;29.50;99.90;;;;;;5097784;28;20705;-77
2022/08/04 06:32:55;;;;;;;5.57;3.88;;;29.50;99.90;;;;;;5096586;28;20659;-77
2022/08/04 06:35:31;;;;;;;8.70;4.78;;;29.60;99.90;;;;;;5091846;28;20204;-76
2022/08/04 06:37:58;;;;;;;8.20;4.40;;;29.70;99.90;;;;;;5093523;28;20257;-77
2022/08/04 06:40:28;;;;;;;7.65;4.25;;;29.90;99.90;;;;;;5098196;28;20235;-75
2022/08/04 06:43:05;;;;;;;7.93;4.55;;;29.90;99.90;;;;;;5097011;28;20207;-77
2022/08/04 06:45:35;;;;;;;7.88;4.60;;;29.90;99.90;;;;;;5097904;28;20223;-75
2022/08/04 06:48:05;;;;;;;5.95;4.32;;;30.00;99.90;;;;;;5096538;28;20219;-76
2022/08/04 06:50:34;;;;;;;7.03;4.20;;;30.00;99.90;;;;;;5101966;28;20234;-76
2022/08/04 06:53:23;;;;;;;6.28;4.53;;;30.10;99.90;;;;;;5101300;28;20214;-77
2022/08/04 06:55:50;;;;;;;8.70;4.13;;;30.30;99.90;;;;;;5101080;28;20207;-76
2022/08/04 06:58:20;;;;;;;9.93;4.57;;;30.40;99.90;;;;;;5096538;28;20268;-77
2022/08/04 07:00:48;;;;;;;7.05;4.47;;;30.70;99.90;;;;;;5105304;28;20203;-76
2022/08/04 07:03:17;;;;;;;6.57;4.28;;;30.80;99.90;;;;;;5101525;28;20215;-76
2022/08/04 07:05:50;;;;;;;8.18;4.10;;;30.80;99.90;;;;;;5100343;28;20227;-76
2022/08/04 07:08:17;;;;;;;7.57;4.10;;;30.80;99.90;;;;;;5097365;28;20198;-77
2022/08/04 07:10:45;;;;;;;7.72;4.10;;;30.70;99.90;;;;;;5101713;28;20252;-77
2022/08/04 07:13:12;;;;;;;5.85;3.95;;;30.70;99.90;;;;;;5097441;28;20286;-77
2022/08/04 07:15:43;;;;;;;8.30;4.25;;;30.60;99.90;;;;;;5098327;28;20658;-76
2022/08/04 07:18:10;;;;;;;10.35;4.22;;;30.50;99.90;;;;;;5100868;28;20216;-76
2022/08/04 07:20:45;;;;;;;8.57;4.80;;;30.50;99.90;;;;;;5097959;28;20588;-77
2022/08/04 07:23:16;;;;;;;8.63;3.88;;;30.40;99.90;;;;;;5100043;28;20199;-76
2022/08/04 07:25:48;;;;;;;9.55;4.00;;;30.30;99.90;;;;;;5099732;28;20228;-77
2022/08/04 07:28:35;;;;;;;8.68;4.20;;;30.20;99.90;;;;;;5100185;28;20298;-76
2022/08/04 07:31:04;;;;;;;11.30;4.38;;;30.10;99.90;;;;;;5105286;28;20203;-75
2022/08/04 07:33:31;;;;;;;6.97;3.70;;;30.00;99.90;;;;;;5099395;28;20735;-75
2022/08/04 07:35:58;;;;;;;6.38;3.67;;;29.90;99.90;;;;;;5100501;28;20199;-78
2022/08/04 07:38:40;;;;;;;7.75;3.83;;;29.80;99.90;;;;;;5100695;28;20244;-77
2022/08/04 07:41:21;;;;;;;9.35;3.42;;;29.70;99.90;;;;;;5101758;28;20242;-77
2022/08/04 07:44:05;;;;;;;7.82;3.90;;;29.70;99.90;;;;;;5099521;28;20204;-76
2022/08/04 07:46:32;;;;;;;10.18;3.83;;;29.60;99.90;;;;;;5100803;28;20303;-77
2022/08/04 07:49:00;;;;;;;9.50;3.70;;;29.60;99.90;;;;;;5106801;28;20985;-77
2022/08/04 07:51:29;;;;;;;8.48;3.47;;;29.60;99.90;;;;;;5099340;28;20203;-74
2022/08/04 07:53:57;;;;;;;12.00;3.60;;;29.70;99.90;;;;;;5100923;28;20279;-76
2022/08/04 07:56:26;;;;;;;11.30;3.80;;;29.90;99.90;;;;;;5102645;28;20248;-76
2022/08/04 07:58:53;;;;;;;7.20;3.38;;;30.10;99.90;;;;;;5096246;28;20212;-77
2022/08/04 08:01:21;;;;;;;6.38;3.47;;;30.30;99.90;;;;;;5102821;28;20617;-76
2022/08/04 08:03:49;;;;;;;11.57;3.75;;;30.50;99.90;;;;;;5097995;28;20591;-76
2022/08/04 08:06:16;;;;;;;7.50;3.28;;;31.00;99.90;;;;;;5100214;28;20322;-76
2022/08/04 08:09:06;;;;;;;7.07;3.28;;;31.50;99.90;;;;;;5101897;28;20199;-78
2022/08/04 08:11:47;;;;;;;7.35;3.25;;;31.90;99.90;;;;;;5097525;28;20203;-79
2022/08/04 08:14:35;;;;;;;9.35;3.22;;;32.20;99.90;;;;;;5098025;28;20293;-79
2022/08/04 08:17:03;;;;;;;6.68;3.13;;;32.70;99.90;;;;;;5097295;28;20622;-79
2022/08/04 08:19:31;;;;;;;7.40;3.35;;;33.10;99.90;;;;;;5098368;28;20212;-77
2022/08/04 08:21:59;;;;;;;8.57;2.92;;;33.50;99.90;;;;;;5103271;28;20214;-79
2022/08/04 08:24:34;;;;;;;6.80;2.95;;;33.90;99.90;;;;;;5096173;28;20375;-76
2022/08/04 08:27:03;;;;;;;10.50;3.10;;;34.20;99.90;;;;;;5096089;28;20347;-78
2022/08/04 08:29:33;;;;;;;6.68;2.95;;;34.20;99.90;;;;;;5101789;28;20207;-78
2022/08/04 08:32:01;;;;;;;15.02;3.47;;;34.40;99.90;;;;;;5104143;28;20202;-77
2022/08/04 08:34:34;;;;;;;7.60;3.38;;;34.60;99.40;;;;;;5096410;28;20308;-78
2022/08/04 08:37:15;;;;;;;6.63;2.85;;;34.60;99.10;;;;;;5094226;28;20199;-78
2022/08/04 08:39:49;;;;;;;11.02;3.13;;;34.80;98.40;;;;;;5094661;28;20563;-78
2022/08/04 08:42:54;;;;;;;10.77;3.45;;;34.70;98.50;;;;;;5098517;28;20198;-77
2022/08/04 08:45:30;;;;;;;11.18;3.55;;;34.40;98.70;;;;;;5099494;28;20266;-77
2022/08/04 08:48:27;;;;;;;8.90;3.28;;;33.90;99.20;;;;;;5100359;28;20258;-76
2022/08/04 08:51:30;;;;;;;9.90;3.17;;;33.60;99.20;;;;;;5098566;28;20200;-76
2022/08/04 08:54:35;;;;;;;7.78;3.10;;;33.40;99.20;;;;;;5098818;28;20241;-77
2022/08/04 08:57:10;;;;;;;8.25;3.08;;;33.00;99.90;;;;;;5094809;28;20211;-77
2022/08/04 08:59:49;;;;;;;7.68;3.50;;;32.90;99.90;;;;;;5099436;28;20677;-79
2022/08/04 09:02:38;;;;;;;11.43;3.42;;;32.60;98.90;;;;;;5099632;28;20624;-77
2022/08/04 09:05:13;;;;;;;6.15;3.00;;;32.30;99.50;;;;;;5102766;28;20562;-77
2022/08/04 09:08:11;;;;;;;8.05;3.53;;;32.30;99.90;;;;;;5095422;28;20239;-78
2022/08/04 09:10:46;;;;;;;6.75;3.30;;;32.50;99.90;;;;;;5100137;28;20363;-78
2022/08/04 09:13:33;;;;;;;6.82;3.17;;;32.70;99.90;;;;;;5096266;28;20230;-76
2022/08/04 09:16:10;;;;;;;8.25;3.25;;;32.70;99.90;;;;;;5099295;28;20199;-77
2022/08/04 09:19:09;;;;;;;6.78;3.53;;;32.50;99.90;;;;;;5097162;28;20206;-78
2022/08/04 09:22:31;;;;;;;10.02;3.70;;;32.20;99.90;;;;;;5098073;28;20192;-76
2022/08/04 09:25:20;;;;;;;7.78;3.30;;;32.30;99.90;;;;;;5069850;28;20201;-77
2022/08/04 09:28:02;;;;;;;7.97;3.60;;;32.60;99.90;;;;;;5091987;28;20207;-76
2022/08/04 09:30:42;;;;;;;5.90;3.00;;;32.90;99.90;;;;;;5101312;28;20214;-77
2022/08/04 09:33:35;;;;;;;5.72;3.05;;;33.10;99.90;;;;;;5101941;28;20249;-79
2022/08/04 09:36:27;;;;;;;6.25;3.00;;;33.20;99.90;;;;;;5099727;28;20199;-76
2022/08/04 09:39:13;;;;;;;4.38;2.70;;;33.30;99.90;;;;;;5096070;28;20199;-76
2022/08/04 09:42:01;;;;;;;6.85;3.05;;;33.30;99.90;;;;;;5100317;28;20703;-76
2022/08/04 09:44:42;;;;;;;8.05;3.65;;;33.30;99.90;;;;;;5092638;28;20249;-75
2022/08/04 09:47:31;;;;;;;4.80;2.97;;;33.30;99.90;;;;;;5096030;28;20297;-75
2022/08/04 09:50:28;;;;;;;12.18;3.30;;;33.40;99.90;;;;;;5097667;28;20309;-76
2022/08/04 09:53:09;;;;;;;8.85;3.30;;;33.60;99.90;;;;;;5094623;28;20239;-76
2022/08/04 09:55:51;;;;;;;8.93;2.95;;;33.80;99.90;;;;;;5100447;28;20267;-76
2022/08/04 09:58:44;;;;;;;4.60;2.80;;;34.00;99.70;;;;;;5109366;28;20245;-76
2022/08/04 10:01:16;;;;;;;3.42;2.40;;;34.10;99.80;;;;;;5092629;28;20219;-76
2022/08/04 10:03:57;;;;;;;4.68;2.72;;;34.30;99.70;;;;;;5108892;28;20244;-76
2022/08/04 10:06:53;;;;;;;5.30;2.90;;;34.40;99.10;;;;;;5099666;28;20218;-76
2022/08/04 10:09:38;;;;;;;6.10;2.30;;;34.40;98.10;;;;;;5060706;28;20616;-78
2022/08/04 10:12:04;;;;;;;5.78;2.20;;;34.30;97.50;;;;;;5098130;28;20273;-76
2022/08/04 10:14:56;;;;;;;8.57;2.63;;;34.10;97.50;;;;;;5095094;28;20253;-77
2022/08/04 10:17:42;;;;;;;6.13;1.83;;;34.10;97.00;;;;;;5096671;28;20227;-76
2022/08/04 10:20:46;;;;;;;5.70;2.28;;;34.00;97.60;;;;;;5101195;28;20281;-77
2022/08/04 10:23:59;;;;;;;6.13;2.15;;;33.80;97.60;;;;;;5096361;28;20280;-77
2022/08/04 10:26:43;;;;;;;6.22;2.15;;;33.50;97.30;;;;;;5098834;28;20771;-76
2022/08/04 10:29:37;;;;;;;5.55;2.10;;;33.20;97.90;;;;;;5093379;28;20256;-77
2022/08/04 10:32:41;;;;;;;6.63;1.90;;;33.00;98.30;;;;;;5098554;28;20697;-76
2022/08/04 10:35:16;;;;;;;4.32;1.83;;;32.80;99.10;;;;;;5097650;28;20204;-77
2022/08/04 10:38:29;;;;;;;3.20;1.80;;;32.60;99.60;;;;;;5099303;28;20666;-77
2022/08/04 10:40:59;;;;;;;6.20;2.17;;;32.60;99.30;;;;;;5094252;28;20774;-77
2022/08/04 10:43:34;;;;;;;4.65;2.13;;;32.40;99.50;;;;;;5092288;28;20587;-77
2022/08/04 10:46:28;;;;;;;7.05;2.13;;;32.30;99.40;;;;;;5091201;28;20683;-77
2022/08/04 10:49:07;;;;;;;8.07;2.45;;;32.10;99.40;;;;;;5098808;28;20255;-76
2022/08/04 10:51:54;;;;;;;5.50;1.80;;;31.80;99.20;;;;;;5100140;28;20219;-77
2022/08/04 10:54:54;;;;;;;6.88;2.03;;;31.60;99.20;;;;;;5097104;28;20199;-77
2022/08/04 10:57:24;;;;;;;4.80;1.73;;;31.30;99.50;;;;;;5086590;28;20192;-76
2022/08/04 10:59:59;;;;;;;3.88;1.67;;;31.00;98.70;;;;;;5100264;28;20751;-77
2022/08/04 11:02:54;;;;;;;6.45;2.22;;;30.80;98.70;;;;;;5101229;28;20368;-76
2022/08/04 11:05:38;;;;;;;3.33;1.98;;;30.50;99.00;;;;;;5092100;28;20609;-76
2022/08/04 11:08:24;;;;;;;7.15;2.28;;;30.30;99.80;;;;;;5092053;28;20251;-76
2022/08/04 11:11:01;;;;;;;6.18;2.10;;;30.10;99.90;;;;;;5095020;28;20618;-75
2022/08/04 11:13:33;;;;;;;5.80;1.85;;;29.80;99.90;;;;;;5097578;28;20196;-77
2022/08/04 11:16:08;;;;;;;6.28;2.00;;;29.70;99.90;;;;;;5095703;28;20688;-75
2022/08/04 11:18:55;;;;;;;4.03;1.70;;;29.40;99.90;;;;;;5097254;28;20851;-77
2022/08/04 11:21:30;;;;;;;4.10;1.83;;;29.30;99.90;;;;;;5104416;28;20214;-74
2022/08/04 11:24:12;;;;;;;4.45;2.40;;;29.20;99.90;;;;;;5102688;28;20203;-75
2022/08/04 11:27:00;;;;;;;4.00;2.08;;;29.10;99.90;;;;;;5096898;28;20226;-76
2022/08/04 11:29:41;;;;;;;2.72;1.45;;;28.90;99.90;;;;;;5101779;28;20320;-76
2022/08/04 11:32:16;;;;;;;3.63;1.73;;;28.60;99.90;;;;;;5101080;28;20590;-74
2022/08/04 11:34:56;;;;;;;2.63;1.60;;;28.60;99.90;;;;;;5099099;28;20256;-76
2022/08/04 11:37:32;;;;;;;5.78;1.90;;;28.50;99.90;;;;;;5103807;28;20199;-76
2022/08/04 11:40:11;;;;;;;4.47;1.55;;;28.40;99.90;;;;;;5100549;28;20577;-76
2022/08/04 11:42:48;;;;;;;3.33;1.75;;;28.30;99.90;;;;;;5099293;28;20314;-78
2022/08/04 11:45:36;;;;;;;6.00;2.22;;;28.20;99.90;;;;;;5099410;28;20200;-75
2022/08/04 11:48:09;;;;;;;3.40;2.05;;;28.20;99.90;;;;;;5082197;28;20232;-76
2022/08/04 11:50:47;;;;;;;5.35;1.98;;;28.00;99.90;;;;;;5105554;28;20232;-75
2022/08/04 11:53:26;;;;;;;3.50;2.10;;;28.00;99.90;;;;;;5101573;28;20606;-76
2022/08/04 11:56:06;;;;;;;6.03;2.30;;;27.90;99.90;;;;;;5100939;28;20296;-77
2022/08/04 11:58:37;;;;;;;3.83;2.20;;;27.70;99.90;;;;;;5101984;28;20241;-76
2022/08/04 12:01:21;;;;;;;5.03;2.10;;;27.60;99.90;;;;;;5104859;28;20257;-76
2022/08/04 12:04:36;;;;;;;3.13;2.10;;;27.40;99.90;;;;;;5106296;28;20208;-76
2022/08/04 12:07:47;;;;;;;6.95;2.97;;;27.20;99.90;;;;;;5030872;28;20257;-76
2022/08/04 12:10:29;;;;;;;2.83;2.10;;;27.10;99.90;;;;;;5027570;28;20202;-76
2022/08/04 12:13:07;;;;;;;6.55;2.70;;;27.00;99.90;;;;;;5101579;28;20579;-76
2022/08/04 12:16:13;;;;;;;5.35;2.55;;;26.90;99.90;;;;;;5098039;28;20215;-76
2022/08/04 12:19:08;;;;;;;4.07;2.38;;;26.90;99.90;;;;;;5098426;28;20357;-74
2022/08/04 12:21:44;;;;;;;4.55;2.30;;;26.90;99.90;;;;;;5103563;28;20260;-75
2022/08/04 12:24:29;;;;;;;5.30;2.80;;;27.10;99.90;;;;;;5101123;28;20207;-76
2022/08/04 12:27:05;;;;;;;5.72;2.42;;;27.40;99.90;;;;;;5097845;28;20272;-76
2022/08/04 12:29:35;;;;;;;4.70;2.40;;;27.70;99.90;;;;;;5096342;28;20294;-75
2022/08/04 12:32:27;;;;;;;5.18;2.17;;;28.00;99.90;;;;;;5105532;28;20253;-75
2022/08/04 12:35:33;;;;;;;4.53;2.15;;;28.30;99.90;;;;;;5097105;28;20204;-77
2022/08/04 12:38:16;;;;;;;3.60;1.85;;;28.40;99.90;;;;;;5045169;28;20209;-77
2022/08/04 12:40:51;;;;;;;4.63;2.10;;;28.60;99.90;;;;;;5094864;28;20272;-78
2022/08/04 12:43:43;;;;;;;6.75;2.70;;;28.80;99.90;;;;;;5101764;28;20696;-76
2022/08/04 12:46:21;;;;;;;2.95;1.77;;;29.10;99.90;;;;;;5099039;28;20219;-78
2022/08/04 12:48:49;;;;;;;7.18;2.00;;;29.10;99.90;;;;;;5098725;28;20752;-77
2022/08/04 12:51:17;;;;;;;2.47;1.50;;;29.10;99.90;;;;;;5096462;28;20208;-78
2022/08/04 12:54:06;;;;;;;4.28;1.75;;;29.20;99.90;;;;;;5094336;28;20211;-77
2022/08/04 12:56:34;;;;;;;4.13;1.85;;;29.30;99.90;;;;;;5097910;28;20207;-76
2022/08/04 12:59:04;;;;;;;4.75;2.30;;;29.50;99.90;;;;;;5097913;28;20666;-79
2022/08/04 13:01:33;;;;;;;4.65;2.20;;;29.60;99.90;;;;;;5102747;28;20204;-78
2022/08/04 13:04:25;;;;;;;5.72;2.78;;;29.70;99.90;;;;;;5099349;28;20695;-78
2022/08/04 13:07:10;;;;;;;4.15;2.10;;;29.80;99.90;;;;;;5094817;28;20316;-78
2022/08/04 13:09:37;;;;;;;2.75;1.70;;;30.00;99.90;;;;;;5099901;28;20272;-80
2022/08/04 13:12:18;;;;;;;4.38;2.03;;;30.20;99.90;;;;;;5101266;28;20199;-76
2022/08/04 13:14:49;;;;;;;2.78;1.83;;;30.40;99.90;;;;;;5096627;28;20230;-78
2022/08/04 13:17:16;;;;;;;4.18;2.03;;;30.20;99.90;;;;;;5095310;28;20219;-77
2022/08/04 13:19:48;;;;;;;4.90;1.73;;;30.20;99.90;;;;;;5104305;28;20664;-79
2022/08/04 13:22:27;;;;;;;4.82;2.30;;;30.30;99.90;;;;;;5098413;28;20194;-77
2022/08/04 13:24:57;;;;;;;4.30;2.10;;;30.40;99.90;;;;;;5099663;28;20210;-77
2022/08/04 13:27:47;;;;;;;4.32;1.70;;;30.50;99.90;;;;;;5103109;28;20331;-78
2022/08/04 13:30:21;;;;;;;6.72;2.08;;;30.60;99.90;;;;;;5100474;28;20210;-77
2022/08/04 13:32:54;;;;;;;2.90;1.67;;;30.80;99.90;;;;;;5098464;28;20211;-76
2022/08/04 13:35:22;;;;;;;2.92;1.60;;;30.90;99.90;;;;;;5102246;28;20199;-78
2022/08/04 13:38:12;;;;;;;3.63;1.80;;;31.00;99.90;;;;;;5100264;28;20671;-79
2022/08/04 13:40:42;;;;;;;5.60;1.60;;;31.20;99.90;;;;;;5098132;28;20583;-80
2022/08/04 13:43:21;;;;;;;4.53;1.67;;;31.30;99.90;;;;;;5102611;28;20239;-76
2022/08/04 13:50:16;;;;;;;3.47;1.92;;;31.30;99.90;;;;;;5079324;27;20602;-79
2022/08/04 13:52:46;;;;;;;6.18;1.88;;;31.20;99.90;;;;;;5079008;28;20655;-76
2022/08/04 13:55:30;;;;;;;3.95;2.17;;;31.30;99.90;;;;;;5078107;28;20219;-77